sensor_id;sensor_type;location;lat;lon;timestamp;pressure;altitude;pressure_sealevel;temperature;humidity
13027;BME280;6580;42.680;23.324;2023-04-05T00:01:45;94845.06;;;2.43;100.00
13027;BME280;6580;42.680;23.324;2023-04-05T00:04:33;94835.53;;;2.53;100.00
13027;BME280;6580;42.680;23.324;2023-04-05T00:07:18;94838.13;;;2.20;100.00
13027;BME280;6580;42.680;23.324;2023-04-05T00:10:04;94840.41;;;2.13;100.00
13027;BME280;6580;42.680;23.324;2023-04-05T00:12:51;94841.25;;;2.25;100.00
13027;BME280;6580;42.680;23.324;2023-04-05T00:15:36;94834.91;;;2.16;100.00
13027;BME280;6580;42.680;23.324;2023-04-05T00:18:22;94844.09;;;2.11;100.00
13027;BME280;6580;42.680;23.324;2023-04-05T00:21:07;94834.31;;;2.13;100.00
13027;BME280;6580;42.680;23.324;2023-04-05T00:23:55;94832.88;;;2.20;100.00
13027;BME280;6580;42.680;23.324;2023-04-05T00:26:41;94834.09;;;2.16;100.00
13027;BME280;6580;42.680;23.324;2023-04-05T00:29:29;94833.63;;;2.33;100.00
13027;BME280;6580;42.680;23.324;2023-04-05T00:32:14;94828.59;;;2.30;100.00
13027;BME280;6580;42.680;23.324;2023-04-05T00:35:00;94833.00;;;2.29;100.00
13027;BME280;6580;42.680;23.324;2023-04-05T00:37:45;94845.53;;;2.37;100.00
13027;BME280;6580;42.680;23.324;2023-04-05T00:40:31;94842.94;;;2.48;100.00
13027;BME280;6580;42.680;23.324;2023-04-05T00:43:16;94837.69;;;2.48;100.00
13027;BME280;6580;42.680;23.324;2023-04-05T00:46:03;94843.78;;;2.37;100.00
13027;BME280;6580;42.680;23.324;2023-04-05T00:48:49;94841.28;;;2.36;100.00
13027;BME280;6580;42.680;23.324;2023-04-05T00:51:35;94835.28;;;2.45;100.00
13027;BME280;6580;42.680;23.324;2023-04-05T00:54:20;94837.91;;;2.45;100.00
13027;BME280;6580;42.680;23.324;2023-04-05T00:57:06;94835.63;;;2.51;100.00
13027;BME280;6580;42.680;23.324;2023-04-05T00:59:52;94844.47;;;2.50;100.00
13027;BME280;6580;42.680;23.324;2023-04-05T01:02:43;94850.81;;;2.37;100.00
13027;BME280;6580;42.680;23.324;2023-04-05T01:05:35;94847.97;;;2.51;100.00
13027;BME280;6580;42.680;23.324;2023-04-05T01:08:28;94845.81;;;2.45;100.00
13027;BME280;6580;42.680;23.324;2023-04-05T01:11:16;94848.06;;;2.49;100.00
13027;BME280;6580;42.680;23.324;2023-04-05T01:14:02;94843.16;;;2.56;100.00
13027;BME280;6580;42.680;23.324;2023-04-05T01:16:48;94847.94;;;2.40;100.00
13027;BME280;6580;42.680;23.324;2023-04-05T01:19:35;94851.75;;;2.25;100.00
13027;BME280;6580;42.680;23.324;2023-04-05T01:22:56;94853.78;;;2.32;100.00
13027;BME280;6580;42.680;23.324;2023-04-05T01:32:46;94856.91;;;2.37;100.00
13027;BME280;6580;42.680;23.324;2023-04-05T01:35:38;94854.75;;;2.31;100.00
13027;BME280;6580;42.680;23.324;2023-04-05T01:38:28;94859.66;;;2.36;100.00
13027;BME280;6580;42.680;23.324;2023-04-05T01:41:14;94860.72;;;2.33;100.00
13027;BME280;6580;42.680;23.324;2023-04-05T01:44:00;94854.75;;;2.20;100.00
13027;BME280;6580;42.680;23.324;2023-04-05T01:46:47;94853.75;;;2.10;100.00
13027;BME280;6580;42.680;23.324;2023-04-05T01:49:32;94860.22;;;2.17;100.00
13027;BME280;6580;42.680;23.324;2023-04-05T01:52:18;94858.91;;;2.23;100.00
13027;BME280;6580;42.680;23.324;2023-04-05T01:55:04;94852.13;;;2.20;100.00
13027;BME280;6580;42.680;23.324;2023-04-05T01:57:50;94850.56;;;2.29;100.00
13027;BME280;6580;42.680;23.324;2023-04-05T02:00:35;94855.81;;;2.29;100.00
13027;BME280;6580;42.680;23.324;2023-04-05T02:03:22;94856.00;;;2.04;100.00
13027;BME280;6580;42.680;23.324;2023-04-05T02:06:08;94846.72;;;2.22;100.00
13027;BME280;6580;42.680;23.324;2023-04-05T02:08:54;94852.47;;;2.16;100.00
13027;BME280;6580;42.680;23.324;2023-04-05T02:11:39;94862.13;;;2.15;100.00
13027;BME280;6580;42.680;23.324;2023-04-05T02:14:24;94858.19;;;2.10;100.00
13027;BME280;6580;42.680;23.324;2023-04-05T02:17:10;94869.44;;;2.45;100.00
13027;BME280;6580;42.680;23.324;2023-04-05T02:19:57;94864.91;;;2.47;100.00
13027;BME280;6580;42.680;23.324;2023-04-05T02:22:45;94858.91;;;2.23;100.00
13027;BME280;6580;42.680;23.324;2023-04-05T02:25:31;94859.41;;;2.39;100.00
13027;BME280;6580;42.680;23.324;2023-04-05T02:28:16;94861.09;;;2.29;100.00
13027;BME280;6580;42.680;23.324;2023-04-05T02:31:07;94860.84;;;2.32;100.00
13027;BME280;6580;42.680;23.324;2023-04-05T02:33:53;94863.72;;;2.51;100.00
13027;BME280;6580;42.680;23.324;2023-04-05T02:36:41;94863.72;;;2.51;100.00
13027;BME280;6580;42.680;23.324;2023-04-05T02:39:27;94858.81;;;2.35;100.00
13027;BME280;6580;42.680;23.324;2023-04-05T02:42:12;94855.59;;;2.54;100.00
13027;BME280;6580;42.680;23.324;2023-04-05T02:44:58;94864.53;;;2.29;100.00
13027;BME280;6580;42.680;23.324;2023-04-05T02:47:43;94857.88;;;2.25;100.00
13027;BME280;6580;42.680;23.324;2023-04-05T02:50:29;94854.88;;;2.52;100.00
13027;BME280;6580;42.680;23.324;2023-04-05T02:53:16;94852.84;;;2.22;100.00
13027;BME280;6580;42.680;23.324;2023-04-05T02:56:01;94854.28;;;2.37;100.00
13027;BME280;6580;42.680;23.324;2023-04-05T02:58:47;94854.28;;;2.48;100.00
13027;BME280;6580;42.680;23.324;2023-04-05T03:01:32;94847.59;;;2.33;100.00
13027;BME280;6580;42.680;23.324;2023-04-05T03:04:19;94852.97;;;2.54;100.00
13027;BME280;6580;42.680;23.324;2023-04-05T03:07:04;94858.59;;;2.38;100.00
13027;BME280;6580;42.680;23.324;2023-04-05T03:09:52;94859.44;;;2.50;100.00
13027;BME280;6580;42.680;23.324;2023-04-05T03:12:37;94850.47;;;2.52;100.00
13027;BME280;6580;42.680;23.324;2023-04-05T03:15:22;94850.69;;;2.49;100.00
13027;BME280;6580;42.680;23.324;2023-04-05T03:18:08;94849.00;;;2.48;100.00
13027;BME280;6580;42.680;23.324;2023-04-05T03:20:55;94849.63;;;2.63;100.00
13027;BME280;6580;42.680;23.324;2023-04-05T03:23:40;94852.25;;;2.52;100.00
13027;BME280;6580;42.680;23.324;2023-04-05T03:26:27;94853.09;;;2.63;100.00
13027;BME280;6580;42.680;23.324;2023-04-05T03:29:12;94857.97;;;2.57;100.00
13027;BME280;6580;42.680;23.324;2023-04-05T03:31:58;94854.41;;;2.36;100.00
13027;BME280;6580;42.680;23.324;2023-04-05T03:34:43;94854.03;;;2.40;100.00
13027;BME280;6580;42.680;23.324;2023-04-05T03:37:29;94849.88;;;2.49;100.00
13027;BME280;6580;42.680;23.324;2023-04-05T03:40:14;94856.31;;;2.34;100.00
13027;BME280;6580;42.680;23.324;2023-04-05T03:43:01;94868.50;;;2.35;100.00
13027;BME280;6580;42.680;23.324;2023-04-05T03:45:47;94864.19;;;2.45;100.00
13027;BME280;6580;42.680;23.324;2023-04-05T03:48:32;94873.63;;;2.25;100.00
13027;BME280;6580;42.680;23.324;2023-04-05T03:51:18;94859.13;;;2.20;100.00
13027;BME280;6580;42.680;23.324;2023-04-05T03:54:04;94875.44;;;2.36;100.00
13027;BME280;6580;42.680;23.324;2023-04-05T03:56:50;94875.66;;;2.33;100.00
13027;BME280;6580;42.680;23.324;2023-04-05T03:59:37;94872.78;;;2.25;100.00
13027;BME280;6580;42.680;23.324;2023-04-05T04:02:22;94876.56;;;1.99;100.00
13027;BME280;6580;42.680;23.324;2023-04-05T04:05:08;94896.28;;;2.15;100.00
13027;BME280;6580;42.680;23.324;2023-04-05T04:07:54;94890.13;;;1.93;100.00
13027;BME280;6580;42.680;23.324;2023-04-05T04:10:40;94899.13;;;2.12;100.00
13027;BME280;6580;42.680;23.324;2023-04-05T04:13:26;94876.56;;;2.10;100.00
13027;BME280;6580;42.680;23.324;2023-04-05T04:16:12;94895.91;;;2.09;100.00
13027;BME280;6580;42.680;23.324;2023-04-05T04:18:59;94894.59;;;2.14;100.00
13027;BME280;6580;42.680;23.324;2023-04-05T04:21:44;94889.03;;;2.30;100.00
13027;BME280;6580;42.680;23.324;2023-04-05T04:24:34;94893.06;;;2.23;100.00
13027;BME280;6580;42.680;23.324;2023-04-05T04:27:23;94890.56;;;2.32;100.00
13027;BME280;6580;42.680;23.324;2023-04-05T04:30:10;94890.78;;;2.18;100.00
13027;BME280;6580;42.680;23.324;2023-04-05T04:32:57;94892.59;;;2.40;100.00
13027;BME280;6580;42.680;23.324;2023-04-05T04:35:46;94893.09;;;2.34;100.00
13027;BME280;6580;42.680;23.324;2023-04-05T04:38:31;94887.34;;;2.29;100.00
13027;BME280;6580;42.680;23.324;2023-04-05T04:41:17;94888.31;;;2.28;100.00
13027;BME280;6580;42.680;23.324;2023-04-05T04:44:05;94900.03;;;2.35;100.00
13027;BME280;6580;42.680;23.324;2023-04-05T04:46:50;94890.25;;;2.48;100.00
13027;BME280;6580;42.680;23.324;2023-04-05T04:49:39;94900.47;;;2.40;100.00
13027;BME280;6580;42.680;23.324;2023-04-05T04:52:24;94901.50;;;2.72;100.00
13027;BME280;6580;42.680;23.324;2023-04-05T04:55:11;94902.44;;;2.71;100.00
13027;BME280;6580;42.680;23.324;2023-04-05T04:57:57;94900.88;;;2.79;100.00
13027;BME280;6580;42.680;23.324;2023-04-05T05:00:42;94889.03;;;2.63;100.00
13027;BME280;6580;42.680;23.324;2023-04-05T05:03:28;94898.72;;;2.73;100.00
13027;BME280;6580;42.680;23.324;2023-04-05T05:06:17;94897.63;;;2.76;100.00
13027;BME280;6580;42.680;23.324;2023-04-05T05:09:04;94900.03;;;2.79;100.00
13027;BME280;6580;42.680;23.324;2023-04-05T05:11:50;94895.50;;;2.70;100.00
13027;BME280;6580;42.680;23.324;2023-04-05T05:14:36;94894.66;;;2.69;100.00
13027;BME280;6580;42.680;23.324;2023-04-05T05:17:21;94874.22;;;2.29;100.00
13027;BME280;6580;42.680;23.324;2023-04-05T05:20:09;94910.06;;;2.52;100.00
13027;BME280;6580;42.680;23.324;2023-04-05T05:22:57;94900.63;;;2.49;100.00
13027;BME280;6580;42.680;23.324;2023-04-05T05:25:44;94899.06;;;2.47;100.00
13027;BME280;6580;42.680;23.324;2023-04-05T05:28:30;94911.50;;;2.67;100.00
13027;BME280;6580;42.680;23.324;2023-04-05T05:31:16;94910.09;;;2.85;100.00
13027;BME280;6580;42.680;23.324;2023-04-05T05:34:02;94910.06;;;2.74;100.00
13027;BME280;6580;42.680;23.324;2023-04-05T05:36:49;94910.44;;;2.91;100.00
13027;BME280;6580;42.680;23.324;2023-04-05T05:39:36;94906.47;;;2.97;100.00
13027;BME280;6580;42.680;23.324;2023-04-05T05:42:22;94906.88;;;2.81;100.00
13027;BME280;6580;42.680;23.324;2023-04-05T05:45:09;94905.63;;;3.07;100.00
13027;BME280;6580;42.680;23.324;2023-04-05T05:47:55;94902.19;;;3.06;100.00
13027;BME280;6580;42.680;23.324;2023-04-05T05:50:40;94892.94;;;3.23;100.00
13027;BME280;6580;42.680;23.324;2023-04-05T05:53:27;94898.28;;;3.43;100.00
13027;BME280;6580;42.680;23.324;2023-04-05T05:56:15;94900.16;;;3.52;100.00
13027;BME280;6580;42.680;23.324;2023-04-05T05:59:01;94895.75;;;3.42;100.00
13027;BME280;6580;42.680;23.324;2023-04-05T06:01:47;94897.19;;;3.46;100.00
13027;BME280;6580;42.680;23.324;2023-04-05T06:04:34;94901.09;;;3.62;100.00
13027;BME280;6580;42.680;23.324;2023-04-05T06:07:20;94894.50;;;3.68;100.00
13027;BME280;6580;42.680;23.324;2023-04-05T06:10:07;94901.97;;;3.83;100.00
13027;BME280;6580;42.680;23.324;2023-04-05T06:12:56;94901.47;;;4.09;100.00
13027;BME280;6580;42.680;23.324;2023-04-05T06:15:42;94890.19;;;3.67;100.00
13027;BME280;6580;42.680;23.324;2023-04-05T06:18:30;94907.31;;;3.61;100.00
13027;BME280;6580;42.680;23.324;2023-04-05T06:21:15;94917.22;;;3.69;100.00
13027;BME280;6580;42.680;23.324;2023-04-05T06:24:01;94899.47;;;3.82;100.00
13027;BME280;6580;42.680;23.324;2023-04-05T06:26:49;94912.41;;;4.05;100.00
13027;BME280;6580;42.680;23.324;2023-04-05T06:29:36;94908.69;;;4.28;100.00
13027;BME280;6580;42.680;23.324;2023-04-05T06:32:21;94911.91;;;3.80;100.00
13027;BME280;6580;42.680;23.324;2023-04-05T06:35:07;94916.44;;;3.89;100.00
13027;BME280;6580;42.680;23.324;2023-04-05T06:37:52;94905.53;;;4.13;98.13
13027;BME280;6580;42.680;23.324;2023-04-05T06:40:38;94924.44;;;4.18;100.00
13027;BME280;6580;42.680;23.324;2023-04-05T06:43:28;94919.91;;;4.91;98.44
13027;BME280;6580;42.680;23.324;2023-04-05T06:46:15;94913.06;;;5.18;93.42
13027;BME280;6580;42.680;23.324;2023-04-05T06:49:01;94910.25;;;5.10;91.61
13027;BME280;6580;42.680;23.324;2023-04-05T06:51:47;94923.44;;;5.40;90.78
13027;BME280;6580;42.680;23.324;2023-04-05T06:54:35;94924.47;;;5.28;88.18
13027;BME280;6580;42.680;23.324;2023-04-05T06:57:21;94932.75;;;5.44;89.73
13027;BME280;6580;42.680;23.324;2023-04-05T07:00:07;94936.13;;;5.65;88.71
13027;BME280;6580;42.680;23.324;2023-04-05T07:02:56;94936.75;;;5.78;85.89
13027;BME280;6580;42.680;23.324;2023-04-05T07:05:49;94929.16;;;5.45;85.26
13027;BME280;6580;42.680;23.324;2023-04-05T07:08:35;94948.31;;;5.47;84.25
13027;BME280;6580;42.680;23.324;2023-04-05T07:11:21;94948.00;;;5.01;88.05
13027;BME280;6580;42.680;23.324;2023-04-05T07:14:06;94947.44;;;5.37;87.93
13027;BME280;6580;42.680;23.324;2023-04-05T07:16:52;94933.28;;;5.38;86.98
13027;BME280;6580;42.680;23.324;2023-04-05T07:19:39;94952.56;;;5.29;85.81
13027;BME280;6580;42.680;23.324;2023-04-05T07:22:26;94952.28;;;5.32;84.87
13027;BME280;6580;42.680;23.324;2023-04-05T07:25:11;94962.63;;;4.85;84.72
13027;BME280;6580;42.680;23.324;2023-04-05T07:27:57;94962.59;;;5.05;88.03
13027;BME280;6580;42.680;23.324;2023-04-05T07:30:44;94959.41;;;4.82;86.76
13027;BME280;6580;42.680;23.324;2023-04-05T07:33:30;94952.97;;;4.75;89.09
13027;BME280;6580;42.680;23.324;2023-04-05T07:36:17;94950.72;;;4.91;91.36
13027;BME280;6580;42.680;23.324;2023-04-05T07:39:03;94958.34;;;5.14;91.45
13027;BME280;6580;42.680;23.324;2023-04-05T07:41:49;94945.47;;;5.30;86.33
13027;BME280;6580;42.680;23.324;2023-04-05T07:44:35;94960.66;;;5.37;86.04
13027;BME280;6580;42.680;23.324;2023-04-05T07:47:21;94967.78;;;5.16;89.85
13027;BME280;6580;42.680;23.324;2023-04-05T07:50:07;94966.72;;;5.28;84.35
13027;BME280;6580;42.680;23.324;2023-04-05T07:52:56;94981.94;;;5.36;83.26
13027;BME280;6580;42.680;23.324;2023-04-05T07:55:42;94980.94;;;5.07;86.14
13027;BME280;6580;42.680;23.324;2023-04-05T07:58:27;94986.63;;;4.62;89.37
13027;BME280;6580;42.680;23.324;2023-04-05T08:01:14;94988.16;;;4.23;88.07
13027;BME280;6580;42.680;23.324;2023-04-05T08:03:59;94989.78;;;4.56;88.70
13027;BME280;6580;42.680;23.324;2023-04-05T08:06:46;94975.38;;;4.39;88.78
13027;BME280;6580;42.680;23.324;2023-04-05T08:09:34;94995.97;;;4.45;90.39
13027;BME280;6580;42.680;23.324;2023-04-05T08:12:19;95001.16;;;4.36;91.86
13027;BME280;6580;42.680;23.324;2023-04-05T08:15:06;94992.03;;;4.81;91.75
13027;BME280;6580;42.680;23.324;2023-04-05T08:17:51;95000.41;;;4.86;88.16
13027;BME280;6580;42.680;23.324;2023-04-05T08:20:37;95000.22;;;4.98;87.05
13027;BME280;6580;42.680;23.324;2023-04-05T08:23:23;95010.19;;;4.74;85.57
13027;BME280;6580;42.680;23.324;2023-04-05T08:26:10;95000.19;;;4.78;85.84
13027;BME280;6580;42.680;23.324;2023-04-05T08:28:57;95004.47;;;4.38;89.32
13027;BME280;6580;42.680;23.324;2023-04-05T08:31:43;95000.78;;;4.61;89.42
13027;BME280;6580;42.680;23.324;2023-04-05T08:34:28;94999.50;;;4.55;90.45
13027;BME280;6580;42.680;23.324;2023-04-05T08:37:14;95011.66;;;4.47;89.01
13027;BME280;6580;42.680;23.324;2023-04-05T08:40:00;95010.69;;;4.89;90.97
13027;BME280;6580;42.680;23.324;2023-04-05T08:42:51;95013.63;;;5.15;89.03
13027;BME280;6580;42.680;23.324;2023-04-05T08:45:46;95014.53;;;5.05;89.15
13027;BME280;6580;42.680;23.324;2023-04-05T08:48:33;95003.88;;;4.86;88.82
13027;BME280;6580;42.680;23.324;2023-04-05T08:51:20;95024.41;;;4.62;91.00
13027;BME280;6580;42.680;23.324;2023-04-05T08:54:06;95026.00;;;4.74;91.89
13027;BME280;6580;42.680;23.324;2023-04-05T08:56:51;95015.50;;;5.04;91.04
13027;BME280;6580;42.680;23.324;2023-04-05T08:59:40;95025.81;;;4.87;93.66
13027;BME280;6580;42.680;23.324;2023-04-05T09:02:28;95025.69;;;5.08;95.52
13027;BME280;6580;42.680;23.324;2023-04-05T09:05:15;95039.00;;;5.07;96.93
13027;BME280;6580;42.680;23.324;2023-04-05T09:08:01;95022.34;;;5.06;92.97
13027;BME280;6580;42.680;23.324;2023-04-05T09:10:48;95035.66;;;5.25;87.95
13027;BME280;6580;42.680;23.324;2023-04-05T09:13:34;95037.13;;;5.18;90.22
13027;BME280;6580;42.680;23.324;2023-04-05T09:16:25;95043.06;;;5.41;89.75
13027;BME280;6580;42.680;23.324;2023-04-05T09:19:11;95030.50;;;5.03;91.09
13027;BME280;6580;42.680;23.324;2023-04-05T09:21:57;95036.97;;;5.40;92.20
13027;BME280;6580;42.680;23.324;2023-04-05T09:24:44;95045.91;;;5.79;87.33
13027;BME280;6580;42.680;23.324;2023-04-05T09:27:32;95039.38;;;5.53;84.51
13027;BME280;6580;42.680;23.324;2023-04-05T09:30:20;95031.41;;;5.73;85.06
13027;BME280;6580;42.680;23.324;2023-04-05T09:33:07;95041.31;;;5.81;83.91
13027;BME280;6580;42.680;23.324;2023-04-05T09:35:56;95022.72;;;5.82;81.01
13027;BME280;6580;42.680;23.324;2023-04-05T09:38:44;95021.78;;;5.72;81.30
13027;BME280;6580;42.680;23.324;2023-04-05T09:41:30;95020.38;;;5.98;77.82
13027;BME280;6580;42.680;23.324;2023-04-05T09:44:15;95024.22;;;6.62;76.74
13027;BME280;6580;42.680;23.324;2023-04-05T09:47:14;95008.28;;;7.09;72.60
13027;BME280;6580;42.680;23.324;2023-04-05T09:50:02;95021.97;;;6.95;72.22
13027;BME280;6580;42.680;23.324;2023-04-05T09:53:04;95011.22;;;6.97;71.90
13027;BME280;6580;42.680;23.324;2023-04-05T09:55:50;95030.28;;;6.05;72.61
13027;BME280;6580;42.680;23.324;2023-04-05T09:58:36;95022.88;;;5.30;72.98
13027;BME280;6580;42.680;23.324;2023-04-05T10:01:25;95029.56;;;5.94;73.17
13027;BME280;6580;42.680;23.324;2023-04-05T10:04:11;95031.31;;;6.33;72.89
13027;BME280;6580;42.680;23.324;2023-04-05T10:07:00;95028.75;;;6.22;72.51
13027;BME280;6580;42.680;23.324;2023-04-05T10:09:46;95028.75;;;6.12;72.29
13027;BME280;6580;42.680;23.324;2023-04-05T10:12:32;95034.19;;;6.11;72.20
13027;BME280;6580;42.680;23.324;2023-04-05T10:15:18;95027.69;;;6.81;68.85
13027;BME280;6580;42.680;23.324;2023-04-05T10:18:07;95034.31;;;6.19;67.30
13027;BME280;6580;42.680;23.324;2023-04-05T10:20:57;95039.16;;;5.95;67.17
13027;BME280;6580;42.680;23.324;2023-04-05T10:23:45;95034.50;;;5.78;67.67
13027;BME280;6580;42.680;23.324;2023-04-05T10:26:39;95033.22;;;6.12;68.37
13027;BME280;6580;42.680;23.324;2023-04-05T10:29:31;95039.06;;;6.25;66.34
13027;BME280;6580;42.680;23.324;2023-04-05T10:32:27;95032.13;;;5.45;67.83
13027;BME280;6580;42.680;23.324;2023-04-05T10:35:16;95021.28;;;6.46;67.73
13027;BME280;6580;42.680;23.324;2023-04-05T10:38:16;95034.06;;;7.07;63.74
13027;BME280;6580;42.680;23.324;2023-04-05T10:41:08;95011.66;;;6.83;61.36
13027;BME280;6580;42.680;23.324;2023-04-05T10:43:56;95015.94;;;7.94;61.56
13027;BME280;6580;42.680;23.324;2023-04-05T10:46:44;95027.47;;;8.02;58.32
13027;BME280;6580;42.680;23.324;2023-04-05T10:49:32;95033.31;;;7.79;57.59
13027;BME280;6580;42.680;23.324;2023-04-05T10:52:21;95026.13;;;6.98;61.02
13027;BME280;6580;42.680;23.324;2023-04-05T10:55:09;95032.16;;;6.62;63.55
13027;BME280;6580;42.680;23.324;2023-04-05T10:57:56;95033.81;;;6.63;64.08
13027;BME280;6580;42.680;23.324;2023-04-05T11:00:42;95036.31;;;6.74;62.90
13027;BME280;6580;42.680;23.324;2023-04-05T11:03:46;95042.81;;;6.13;64.93
13027;BME280;6580;42.680;23.324;2023-04-05T11:06:33;95034.06;;;6.22;66.03
13027;BME280;6580;42.680;23.324;2023-04-05T11:09:19;95054.47;;;5.71;69.07
13027;BME280;6580;42.680;23.324;2023-04-05T11:12:05;95053.50;;;6.11;67.44
13027;BME280;6580;42.680;23.324;2023-04-05T11:14:52;95046.16;;;6.15;66.84
13027;BME280;6580;42.680;23.324;2023-04-05T11:17:37;95040.22;;;5.83;66.94
13027;BME280;6580;42.680;23.324;2023-04-05T11:20:22;95051.31;;;6.26;65.45
13027;BME280;6580;42.680;23.324;2023-04-05T11:23:11;95034.31;;;5.40;66.01
13027;BME280;6580;42.680;23.324;2023-04-05T11:26:05;95034.69;;;5.96;66.14
13027;BME280;6580;42.680;23.324;2023-04-05T11:28:56;95037.97;;;6.27;64.62
13027;BME280;6580;42.680;23.324;2023-04-05T11:31:58;95037.63;;;6.02;64.47
13027;BME280;6580;42.680;23.324;2023-04-05T11:34:56;95040.38;;;5.91;65.96
13027;BME280;6580;42.680;23.324;2023-04-05T11:37:53;95016.53;;;6.30;65.18
13027;BME280;6580;42.680;23.324;2023-04-05T11:40:38;95046.91;;;6.36;63.86
13027;BME280;6580;42.680;23.324;2023-04-05T11:43:26;95040.09;;;6.81;63.96
13027;BME280;6580;42.680;23.324;2023-04-05T11:46:13;95034.03;;;7.26;60.98
13027;BME280;6580;42.680;23.324;2023-04-05T11:49:00;95016.69;;;6.67;61.01
13027;BME280;6580;42.680;23.324;2023-04-05T11:51:47;95012.38;;;6.66;60.70
13027;BME280;6580;42.680;23.324;2023-04-05T11:54:34;95034.38;;;5.80;63.20
13027;BME280;6580;42.680;23.324;2023-04-05T11:57:21;95028.47;;;6.06;65.41
13027;BME280;6580;42.680;23.324;2023-04-05T12:00:08;95013.66;;;5.85;66.21
13027;BME280;6580;42.680;23.324;2023-04-05T12:02:54;95035.34;;;5.79;65.69
13027;BME280;6580;42.680;23.324;2023-04-05T12:05:49;95027.28;;;5.80;67.23
13027;BME280;6580;42.680;23.324;2023-04-05T12:08:38;95031.22;;;5.95;67.47
13027;BME280;6580;42.680;23.324;2023-04-05T12:11:25;95032.09;;;6.24;67.75
13027;BME280;6580;42.680;23.324;2023-04-05T12:14:12;95033.94;;;6.33;66.66
13027;BME280;6580;42.680;23.324;2023-04-05T12:16:57;95038.91;;;6.07;66.05
13027;BME280;6580;42.680;23.324;2023-04-05T12:19:43;95045.22;;;6.35;67.96
13027;BME280;6580;42.680;23.324;2023-04-05T12:22:31;95040.03;;;6.24;67.18
13027;BME280;6580;42.680;23.324;2023-04-05T12:25:17;95032.16;;;7.55;64.88
13027;BME280;6580;42.680;23.324;2023-04-05T12:28:04;95001.22;;;9.13;55.17
13027;BME280;6580;42.680;23.324;2023-04-05T12:30:57;95018.34;;;10.28;53.78
13027;BME280;6580;42.680;23.324;2023-04-05T12:33:44;95010.38;;;9.95;52.86
13027;BME280;6580;42.680;23.324;2023-04-05T12:36:30;95004.31;;;8.49;56.42
13027;BME280;6580;42.680;23.324;2023-04-05T12:39:20;95012.25;;;8.66;57.36
13027;BME280;6580;42.680;23.324;2023-04-05T12:42:16;95021.41;;;7.83;59.49
13027;BME280;6580;42.680;23.324;2023-04-05T12:45:02;95027.84;;;7.54;60.27
13027;BME280;6580;42.680;23.324;2023-04-05T12:47:51;95024.75;;;6.65;63.07
13027;BME280;6580;42.680;23.324;2023-04-05T12:50:41;95033.28;;;6.78;64.71
13027;BME280;6580;42.680;23.324;2023-04-05T12:53:26;95027.38;;;6.94;62.06
13027;BME280;6580;42.680;23.324;2023-04-05T12:56:14;95023.50;;;6.98;63.51
13027;BME280;6580;42.680;23.324;2023-04-05T12:59:00;95041.34;;;5.90;65.36
13027;BME280;6580;42.680;23.324;2023-04-05T13:01:45;95037.09;;;6.08;66.25
13027;BME280;6580;42.680;23.324;2023-04-05T13:04:30;95040.91;;;6.43;66.78
13027;BME280;6580;42.680;23.324;2023-04-05T13:07:16;95040.25;;;6.70;65.43
13027;BME280;6580;42.680;23.324;2023-04-05T13:10:01;95042.91;;;6.02;63.92
13027;BME280;6580;42.680;23.324;2023-04-05T13:12:48;95039.19;;;6.14;64.46
13027;BME280;6580;42.680;23.324;2023-04-05T13:15:34;95038.22;;;6.05;65.86
13027;BME280;6580;42.680;23.324;2023-04-05T13:18:20;95047.03;;;6.44;63.90
13027;BME280;6580;42.680;23.324;2023-04-05T13:21:06;95028.25;;;6.56;62.80
13027;BME280;6580;42.680;23.324;2023-04-05T13:23:52;95041.28;;;6.20;64.44
13027;BME280;6580;42.680;23.324;2023-04-05T13:26:40;95034.56;;;5.67;65.85
13027;BME280;6580;42.680;23.324;2023-04-05T13:29:37;95045.03;;;5.48;68.66
13027;BME280;6580;42.680;23.324;2023-04-05T13:32:23;95032.19;;;5.55;67.15
13027;BME280;6580;42.680;23.324;2023-04-05T13:35:09;95046.19;;;5.85;67.78
13027;BME280;6580;42.680;23.324;2023-04-05T13:37:54;95044.94;;;5.80;67.18
13027;BME280;6580;42.680;23.324;2023-04-05T13:40:40;95043.56;;;5.85;66.96
13027;BME280;6580;42.680;23.324;2023-04-05T13:43:25;95040.56;;;5.99;67.99
13027;BME280;6580;42.680;23.324;2023-04-05T13:46:13;95043.09;;;5.71;67.51
13027;BME280;6580;42.680;23.324;2023-04-05T13:48:58;95037.22;;;5.37;68.84
13027;BME280;6580;42.680;23.324;2023-04-05T13:51:44;95040.09;;;4.84;70.78
13027;BME280;6580;42.680;23.324;2023-04-05T13:54:29;95050.81;;;5.33;72.99
13027;BME280;6580;42.680;23.324;2023-04-05T13:57:15;95055.09;;;5.84;69.74
13027;BME280;6580;42.680;23.324;2023-04-05T14:00:06;95048.59;;;5.98;70.00
13027;BME280;6580;42.680;23.324;2023-04-05T14:03:07;95054.88;;;5.97;68.30
13027;BME280;6580;42.680;23.324;2023-04-05T14:05:53;95062.69;;;5.98;67.82
13027;BME280;6580;42.680;23.324;2023-04-05T14:08:39;95058.16;;;5.29;70.02
13027;BME280;6580;42.680;23.324;2023-04-05T14:11:24;95065.38;;;5.27;71.46
13027;BME280;6580;42.680;23.324;2023-04-05T14:14:09;95067.03;;;5.28;70.35
13027;BME280;6580;42.680;23.324;2023-04-05T14:16:55;95070.34;;;5.00;72.22
13027;BME280;6580;42.680;23.324;2023-04-05T14:19:42;95073.56;;;5.24;72.77
13027;BME280;6580;42.680;23.324;2023-04-05T14:22:27;95066.56;;;5.44;72.29
13027;BME280;6580;42.680;23.324;2023-04-05T14:25:12;95061.50;;;5.31;72.32
13027;BME280;6580;42.680;23.324;2023-04-05T14:27:58;95073.16;;;4.88;72.78
13027;BME280;6580;42.680;23.324;2023-04-05T14:30:43;95070.59;;;4.77;73.77
13027;BME280;6580;42.680;23.324;2023-04-05T14:33:29;95075.81;;;4.57;74.74
13027;BME280;6580;42.680;23.324;2023-04-05T14:36:16;95073.72;;;4.51;75.62
13027;BME280;6580;42.680;23.324;2023-04-05T14:39:01;95078.13;;;4.50;77.40
13027;BME280;6580;42.680;23.324;2023-04-05T14:41:46;95075.66;;;4.69;77.61
13027;BME280;6580;42.680;23.324;2023-04-05T14:44:35;95074.06;;;4.78;75.89
13027;BME280;6580;42.680;23.324;2023-04-05T14:47:20;95077.81;;;4.96;75.71
13027;BME280;6580;42.680;23.324;2023-04-05T14:50:06;95078.50;;;4.97;75.44
13027;BME280;6580;42.680;23.324;2023-04-05T14:52:53;95080.22;;;4.67;75.08
13027;BME280;6580;42.680;23.324;2023-04-05T14:55:38;95088.69;;;4.82;76.39
13027;BME280;6580;42.680;23.324;2023-04-05T14:58:24;95084.50;;;4.48;74.66